createdAt,value
2016-12-29T00:00:54.566Z,4.5
2016-12-29T00:01:54.562Z,4.51
2016-12-29T00:02:54.546Z,4.44
2016-12-29T00:03:54.499Z,4.36
2016-12-29T00:04:54.556Z,4.44
2016-12-29T00:05:54.562Z,4.36
2016-12-29T00:06:54.554Z,4.39
2016-12-29T00:07:54.588Z,4.35
2016-12-29T00:08:54.511Z,4.3
2016-12-29T00:09:54.500Z,4.48
2016-12-29T00:10:54.518Z,4.56
2016-12-29T00:11:54.641Z,4.33
2016-12-29T00:12:54.646Z,4.38
2016-12-29T00:13:54.513Z,4.53
2016-12-29T00:14:54.681Z,4.4
2016-12-29T00:15:54.567Z,4.4
2016-12-29T00:16:54.631Z,4.4
2016-12-29T00:17:54.632Z,4.42
2016-12-29T00:18:54.522Z,4.39
2016-12-29T00:19:54.575Z,4.42
2016-12-29T00:20:54.585Z,4.38
2016-12-29T00:21:54.606Z,4.36
2016-12-29T00:22:54.584Z,4.42
2016-12-29T00:23:54.617Z,4.24
2016-12-29T00:24:54.548Z,4.29
2016-12-29T00:25:54.589Z,4.17
2016-12-29T00:26:54.641Z,4.26
2016-12-29T00:27:54.685Z,4.2
2016-12-29T00:28:54.670Z,4.21
2016-12-29T00:29:54.558Z,4.15
2016-12-29T00:30:54.599Z,4.28
2016-12-29T00:31:54.657Z,4.18
2016-12-29T00:32:54.686Z,4.11
2016-12-29T00:33:54.590Z,4.15
2016-12-29T00:34:54.607Z,4.12
2016-12-29T00:35:54.658Z,4.12
2016-12-29T00:36:54.612Z,4
2016-12-29T00:37:54.616Z,3.97
2016-12-29T00:38:54.689Z,3.96
2016-12-29T00:39:54.757Z,3.94
2016-12-29T00:40:54.607Z,3.94
2016-12-29T00:41:54.597Z,3.94
2016-12-29T00:42:54.611Z,3.94
2016-12-29T00:43:54.554Z,3.93
2016-12-29T00:44:54.555Z,4.12
2016-12-29T00:45:54.676Z,3.9
2016-12-29T00:46:54.610Z,3.89
2016-12-29T00:47:54.562Z,3.84
2016-12-29T00:48:54.657Z,3.99
2016-12-29T00:49:54.611Z,4.07
2016-12-29T00:50:54.625Z,3.94
2016-12-29T00:51:54.628Z,3.84
2016-12-29T00:52:54.681Z,3.76
2016-12-29T00:53:54.632Z,3.84
2016-12-29T00:54:54.557Z,3.81
2016-12-29T00:55:54.767Z,3.74
2016-12-29T00:56:54.571Z,3.75
2016-12-29T00:57:54.569Z,3.66
2016-12-29T00:58:54.729Z,3.71
2016-12-29T00:59:54.685Z,3.61
2016-12-29T01:00:54.715Z,3.69
2016-12-29T01:01:54.651Z,3.69
2016-12-29T01:02:54.641Z,3.75
2016-12-29T01:03:54.688Z,3.74
2016-12-29T01:04:54.720Z,3.75
2016-12-29T01:05:54.695Z,3.64
2016-12-29T01:06:54.624Z,3.61
2016-12-29T01:07:54.594Z,3.64
2016-12-29T01:08:54.642Z,3.61
2016-12-29T01:09:54.706Z,3.63
2016-12-29T01:10:54.587Z,3.6
2016-12-29T01:11:55.097Z,3.51
2016-12-29T01:12:54.588Z,3.67
2016-12-29T01:13:54.708Z,3.48
2016-12-29T01:14:54.600Z,3.63
2016-12-29T01:15:54.652Z,3.6
2016-12-29T01:16:54.680Z,3.58
2016-12-29T01:17:54.727Z,3.61
2016-12-29T01:18:54.713Z,3.51
2016-12-29T01:19:54.719Z,3.51
2016-12-29T01:20:54.668Z,3.53
2016-12-29T01:21:54.676Z,3.53
2016-12-29T01:22:54.671Z,3.48
2016-12-29T01:23:54.666Z,3.45
2016-12-29T01:24:54.664Z,3.49
2016-12-29T01:25:54.609Z,3.61
2016-12-29T01:26:54.671Z,3.61
2016-12-29T01:27:54.884Z,3.57
2016-12-29T01:28:54.684Z,3.54
2016-12-29T01:29:54.699Z,3.48
2016-12-29T01:30:54.731Z,3.51
2016-12-29T01:31:54.609Z,3.54
2016-12-29T01:32:54.770Z,3.54
2016-12-29T01:33:54.675Z,3.42
2016-12-29T01:34:54.653Z,3.45
2016-12-29T01:35:54.686Z,3.42
2016-12-29T01:36:54.683Z,3.42
2016-12-29T01:37:54.632Z,3.43
2016-12-29T01:38:54.640Z,3.48
2016-12-29T01:39:54.670Z,3.43
2016-12-29T01:40:54.625Z,3.43
2016-12-29T01:41:54.698Z,3.37
2016-12-29T01:42:54.632Z,3.32
2016-12-29T01:43:54.720Z,3.39
2016-12-29T01:44:54.693Z,3.3
2016-12-29T01:45:54.750Z,3.39
2016-12-29T01:46:54.687Z,3.29
2016-12-29T01:47:54.747Z,3.3
2016-12-29T01:48:54.645Z,3.34
2016-12-29T01:49:54.640Z,3.34
2016-12-29T01:50:54.696Z,3.34
2016-12-29T01:51:54.766Z,3.3
2016-12-29T01:52:54.667Z,3.32
2016-12-29T01:53:54.638Z,3.24
2016-12-29T01:54:54.701Z,3.21
2016-12-29T01:55:54.706Z,3.21
2016-12-29T01:56:54.765Z,3.32
2016-12-29T01:57:54.709Z,3.19
2016-12-29T01:58:54.693Z,3.26
2016-12-29T01:59:54.775Z,3.2
2016-12-29T02:00:54.755Z,3.2
2016-12-29T02:01:54.688Z,3.13
2016-12-29T02:02:54.747Z,3.17
2016-12-29T02:03:54.729Z,3.11
2016-12-29T02:04:54.728Z,3.17
2016-12-29T02:05:54.724Z,3.16
2016-12-29T02:06:54.715Z,3.2
2016-12-29T02:07:54.660Z,3.26
2016-12-29T02:08:54.722Z,3.16
2016-12-29T02:09:54.814Z,3.23
2016-12-29T02:10:54.776Z,3.24
2016-12-29T02:11:54.690Z,3.2
2016-12-29T02:12:54.718Z,3.2
2016-12-29T02:13:54.726Z,3.19
2016-12-29T02:14:54.730Z,3.17
2016-12-29T02:15:54.840Z,3.21
2016-12-29T02:16:54.707Z,3.2
2016-12-29T02:17:54.663Z,3.23
2016-12-29T02:18:54.710Z,3.14
2016-12-29T02:19:54.737Z,3.2
2016-12-29T02:20:54.838Z,3.2
2016-12-29T02:21:54.746Z,3.11
2016-12-29T02:22:54.680Z,3.17
2016-12-29T02:23:54.743Z,3.13
2016-12-29T02:24:54.805Z,3.08
2016-12-29T02:25:54.752Z,3.09
2016-12-29T02:26:54.747Z,3.19
2016-12-29T02:27:54.816Z,3.08
2016-12-29T02:28:54.742Z,3.02
2016-12-29T02:29:54.793Z,3.11
2016-12-29T02:30:54.835Z,2.98
2016-12-29T02:31:54.859Z,3.01
2016-12-29T02:32:54.693Z,2.95
2016-12-29T02:33:54.697Z,2.98
2016-12-29T02:34:54.765Z,2.93
2016-12-29T02:35:54.740Z,2.95
2016-12-29T02:36:54.782Z,2.9
2016-12-29T02:37:54.781Z,3.01
2016-12-29T02:38:54.818Z,2.8
2016-12-29T02:39:54.709Z,2.85
2016-12-29T02:40:54.762Z,2.84
2016-12-29T02:41:54.753Z,2.85
2016-12-29T02:42:54.756Z,2.76
2016-12-29T02:43:54.814Z,2.77
2016-12-29T02:44:54.759Z,2.76
2016-12-29T02:45:54.782Z,2.65
2016-12-29T02:46:54.774Z,2.48
2016-12-29T02:47:54.757Z,2.23
2016-12-29T02:48:54.710Z,2.22
2016-12-29T02:49:54.713Z,2.26
2016-12-29T02:50:54.794Z,2.23
2016-12-29T02:51:54.830Z,2.42
2016-12-29T02:52:54.793Z,2.42
2016-12-29T02:53:54.789Z,2.33
2016-12-29T02:54:54.780Z,2.24
2016-12-29T02:55:54.717Z,2.13
2016-12-29T02:56:54.722Z,2.04
2016-12-29T02:57:54.834Z,2.06
2016-12-29T02:58:54.831Z,2.02
2016-12-29T02:59:54.801Z,1.84
2016-12-29T03:00:54.836Z,1.75
2016-12-29T03:01:54.866Z,1.71
2016-12-29T03:02:54.861Z,1.6
2016-12-29T03:03:54.847Z,1.56
2016-12-29T03:04:54.798Z,1.44
2016-12-29T03:05:54.735Z,1.33
2016-12-29T03:06:54.852Z,1.26
2016-12-29T03:07:54.760Z,1.18
2016-12-29T03:08:54.799Z,1.14
2016-12-29T03:09:54.826Z,1.04
2016-12-29T03:10:54.858Z,1.02
2016-12-29T03:11:54.798Z,0.99
2016-12-29T03:12:54.748Z,0.86
2016-12-29T03:13:54.792Z,0.9
2016-12-29T03:14:54.810Z,0.82
2016-12-29T03:15:54.867Z,0.75
2016-12-29T03:16:54.803Z,0.74
2016-12-29T03:17:54.812Z,0.6
2016-12-29T03:18:54.802Z,0.6
2016-12-29T03:19:54.915Z,0.63
2016-12-29T03:20:54.811Z,0.42
2016-12-29T03:21:54.875Z,0.53
2016-12-29T03:22:54.861Z,0.56
2016-12-29T03:23:54.813Z,0.63
2016-12-29T03:24:54.825Z,1.03
2016-12-29T03:25:54.756Z,1.1
2016-12-29T03:26:54.754Z,0.94
2016-12-29T03:27:54.831Z,1.02
2016-12-29T03:28:54.817Z,1.07
2016-12-29T03:29:54.836Z,1.07
2016-12-29T03:30:54.758Z,0.93
2016-12-29T03:31:54.812Z,0.96
2016-12-29T03:32:54.839Z,0.86
2016-12-29T03:33:55.032Z,1.1
2016-12-29T03:34:54.823Z,1.14
2016-12-29T03:35:54.935Z,1.24
2016-12-29T03:36:54.825Z,1.15
2016-12-29T03:37:54.845Z,1.22
2016-12-29T03:38:54.911Z,1.22
2016-12-29T03:39:54.829Z,1.29
2016-12-29T03:40:54.895Z,1.35
2016-12-29T03:41:54.789Z,1.38
2016-12-29T03:42:54.824Z,1.53
2016-12-29T03:43:54.837Z,1.57
2016-12-29T03:44:54.842Z,1.66
2016-12-29T03:45:54.850Z,1.75
2016-12-29T03:46:54.838Z,1.65
2016-12-29T03:47:54.862Z,1.66
2016-12-29T03:48:54.897Z,1.74
2016-12-29T03:49:54.789Z,1.79
2016-12-29T03:50:54.904Z,1.92
2016-12-29T03:51:54.832Z,2.04
2016-12-29T03:52:54.930Z,2.12
2016-12-29T03:53:54.806Z,2.06
2016-12-29T03:54:54.854Z,2.15
2016-12-29T03:55:54.923Z,2.13
2016-12-29T03:56:54.930Z,2.2
2016-12-29T03:57:54.796Z,2.11
2016-12-29T03:58:54.806Z,2.23
2016-12-29T03:59:54.792Z,2.23
2016-12-29T04:00:54.859Z,2.26
2016-12-29T04:01:54.849Z,2.31
2016-12-29T04:02:54.853Z,2.44
2016-12-29T04:03:54.928Z,2.24
2016-12-29T04:04:54.983Z,2.22
2016-12-29T04:05:54.864Z,2.2
2016-12-29T04:06:54.937Z,2.11
2016-12-29T04:07:54.953Z,2.27
2016-12-29T04:08:54.868Z,2.24
2016-12-29T04:09:54.885Z,2.23
2016-12-29T04:10:54.927Z,2.24
2016-12-29T04:11:54.898Z,2.26
2016-12-29T04:12:54.892Z,2.13
2016-12-29T04:13:54.882Z,2.24
2016-12-29T04:14:54.816Z,2.04
2016-12-29T04:15:54.864Z,2.24
2016-12-29T04:16:54.873Z,2.13
2016-12-29T04:17:54.875Z,2.22
2016-12-29T04:18:54.830Z,2.31
2016-12-29T04:19:54.939Z,2.15
2016-12-29T04:20:54.889Z,2.18
2016-12-29T04:21:54.890Z,2.04
2016-12-29T04:22:54.904Z,2.13
2016-12-29T04:23:54.943Z,2.06
2016-12-29T04:24:54.891Z,2.02
2016-12-29T04:25:54.913Z,1.97
2016-12-29T04:26:54.831Z,1.9
2016-12-29T04:27:54.896Z,1.97
2016-12-29T04:28:54.919Z,2.01
2016-12-29T04:29:54.836Z,2.02
2016-12-29T04:30:54.965Z,2.16
2016-12-29T04:31:54.895Z,2.09
2016-12-29T04:32:54.920Z,2.18
2016-12-29T04:33:54.893Z,2.15
2016-12-29T04:34:54.917Z,2.05
2016-12-29T04:35:54.864Z,2.18
2016-12-29T04:36:54.896Z,2.05
2016-12-29T04:37:54.902Z,2.08
2016-12-29T04:38:54.856Z,1.97
2016-12-29T04:39:55.019Z,2.02
2016-12-29T04:40:54.919Z,2.11
2016-12-29T04:41:54.903Z,2.04
2016-12-29T04:42:54.915Z,2.12
2016-12-29T04:43:54.904Z,2.12
2016-12-29T04:44:54.982Z,2.04
2016-12-29T04:45:54.856Z,2.13
2016-12-29T04:46:54.914Z,2.2
2016-12-29T04:47:54.923Z,2.15
2016-12-29T04:48:54.915Z,2.11
2016-12-29T04:49:54.870Z,2.06
2016-12-29T04:50:54.862Z,2.09
2016-12-29T04:51:54.947Z,2.02
2016-12-29T04:52:54.983Z,2.12
2016-12-29T04:53:55.017Z,2.06
2016-12-29T04:54:54.920Z,1.98
2016-12-29T04:55:54.909Z,1.87
2016-12-29T04:56:54.939Z,2.05
2016-12-29T04:57:54.997Z,2.05
2016-12-29T04:58:54.941Z,1.98
2016-12-29T04:59:54.886Z,1.98
2016-12-29T05:00:54.951Z,1.98
2016-12-29T05:01:54.881Z,1.93
2016-12-29T05:02:54.939Z,1.89
2016-12-29T05:03:54.883Z,1.92
2016-12-29T05:04:54.944Z,1.78
2016-12-29T05:05:54.956Z,1.86
2016-12-29T05:06:54.948Z,1.87
2016-12-29T05:07:55.010Z,1.86
2016-12-29T05:08:55.002Z,1.84
2016-12-29T05:09:54.999Z,1.78
2016-12-29T05:10:54.893Z,1.76
2016-12-29T05:11:55.069Z,1.82
2016-12-29T05:12:54.941Z,1.82
2016-12-29T05:13:54.950Z,1.94
2016-12-29T05:14:54.967Z,1.89
2016-12-29T05:15:54.947Z,1.93
2016-12-29T05:16:54.982Z,1.84
2016-12-29T05:17:54.904Z,1.92
2016-12-29T05:18:54.899Z,1.93
2016-12-29T05:19:55.027Z,1.92
2016-12-29T05:20:54.967Z,1.89
2016-12-29T05:21:55.034Z,1.87
2016-12-29T05:22:55.033Z,1.76
2016-12-29T05:23:54.905Z,1.72
2016-12-29T05:24:54.971Z,1.75
2016-12-29T05:25:54.985Z,1.75
2016-12-29T05:26:54.965Z,1.74
2016-12-29T05:27:55.007Z,1.74
2016-12-29T05:28:54.913Z,1.6
2016-12-29T05:29:54.962Z,1.54
2016-12-29T05:30:54.996Z,1.54
2016-12-29T05:31:54.981Z,1.56
2016-12-29T05:32:54.992Z,1.48
2016-12-29T05:33:55.001Z,1.56
2016-12-29T05:34:54.929Z,1.74
2016-12-29T05:35:54.982Z,1.75
2016-12-29T05:36:54.989Z,1.76
2016-12-29T05:37:55.009Z,1.75
2016-12-29T05:38:54.922Z,1.72
2016-12-29T05:39:55.042Z,1.66
2016-12-29T05:40:55.048Z,1.66
2016-12-29T05:41:55.044Z,1.69
2016-12-29T05:42:54.988Z,1.61
2016-12-29T05:43:55.099Z,1.68
2016-12-29T05:44:55.062Z,1.74
2016-12-29T05:45:55.003Z,1.68
2016-12-29T05:46:55.006Z,1.74
2016-12-29T05:47:54.994Z,1.83
2016-12-29T05:48:54.956Z,1.86
2016-12-29T05:49:54.967Z,1.84
2016-12-29T05:50:54.991Z,1.75
2016-12-29T05:51:55.007Z,1.75
2016-12-29T05:52:55.072Z,1.69
2016-12-29T05:53:55.004Z,1.74
2016-12-29T05:54:55.009Z,1.79
2016-12-29T05:55:55.022Z,1.76
2016-12-29T05:56:55.064Z,1.76
2016-12-29T05:57:54.945Z,1.76
2016-12-29T05:58:55.014Z,1.74
2016-12-29T05:59:55.050Z,1.79
2016-12-29T06:00:55.003Z,1.74
2016-12-29T06:01:55.012Z,1.72
2016-12-29T06:02:55.009Z,1.74
2016-12-29T06:03:54.966Z,1.75
2016-12-29T06:04:55.078Z,1.76
2016-12-29T06:05:55.029Z,1.71
2016-12-29T06:06:55.062Z,1.65
2016-12-29T06:07:55.076Z,1.56
2016-12-29T06:08:55.169Z,1.47
2016-12-29T06:09:55.092Z,1.46
2016-12-29T06:10:55.035Z,1.46
2016-12-29T06:11:55.021Z,1.48
2016-12-29T06:12:55.026Z,1.42
2016-12-29T06:13:54.979Z,1.54
2016-12-29T06:14:54.971Z,1.6
2016-12-29T06:15:55.290Z,1.56
2016-12-29T06:16:55.094Z,1.66
2016-12-29T06:17:54.972Z,1.51
2016-12-29T06:18:55.048Z,1.61
2016-12-29T06:19:55.083Z,1.56
2016-12-29T06:20:55.054Z,1.44
2016-12-29T06:21:55.095Z,1.5
2016-12-29T06:22:55.050Z,1.69
2016-12-29T06:23:55.097Z,1.75
2016-12-29T06:24:54.972Z,1.83
2016-12-29T06:25:55.115Z,1.75
2016-12-29T06:26:54.985Z,1.78
2016-12-29T06:27:54.997Z,1.86
2016-12-29T06:28:55.103Z,1.79
2016-12-29T06:29:55.098Z,1.89
2016-12-29T06:30:55.048Z,1.83
2016-12-29T06:31:55.195Z,1.93
2016-12-29T06:32:55.052Z,1.84
2016-12-29T06:33:55.059Z,1.89
2016-12-29T06:34:55.075Z,1.97
2016-12-29T06:35:55.098Z,1.87
2016-12-29T06:36:55.092Z,2.05
2016-12-29T06:37:55.058Z,2.06
2016-12-29T06:38:55.027Z,2.05
2016-12-29T06:39:55.173Z,1.94
2016-12-29T06:40:55.084Z,2.02
2016-12-29T06:41:55.074Z,1.94
2016-12-29T06:42:55.020Z,1.92
2016-12-29T06:43:55.071Z,1.86
2016-12-29T06:44:55.066Z,1.83
2016-12-29T06:45:55.068Z,1.93
2016-12-29T06:46:55.135Z,1.93
2016-12-29T06:47:55.067Z,1.94
2016-12-29T06:48:55.004Z,1.92
2016-12-29T06:49:55.139Z,1.84
2016-12-29T06:50:55.071Z,1.92
2016-12-29T06:51:55.075Z,2.01
2016-12-29T06:52:55.040Z,1.93
2016-12-29T06:53:55.084Z,1.92
2016-12-29T06:54:55.072Z,1.87
2016-12-29T06:55:55.087Z,1.86
2016-12-29T06:56:55.072Z,1.86
2016-12-29T06:57:55.153Z,1.83
2016-12-29T06:58:55.029Z,1.79
2016-12-29T06:59:55.025Z,1.84
2016-12-29T07:00:55.034Z,1.89
2016-12-29T07:01:55.027Z,1.92
2016-12-29T07:02:55.103Z,1.87
2016-12-29T07:03:55.259Z,1.87
2016-12-29T07:04:55.153Z,1.83
2016-12-29T07:05:55.086Z,1.79
2016-12-29T07:06:55.101Z,1.86
2016-12-29T07:07:55.140Z,1.86
2016-12-29T07:08:55.052Z,1.82
2016-12-29T07:09:55.094Z,1.92
2016-12-29T07:10:55.127Z,1.84
2016-12-29T07:11:55.154Z,1.75
2016-12-29T07:12:55.110Z,1.75
2016-12-29T07:13:55.051Z,1.86
2016-12-29T07:14:55.170Z,1.82
2016-12-29T07:15:55.112Z,1.9
2016-12-29T07:16:55.203Z,1.89
2016-12-29T07:17:55.123Z,1.92
2016-12-29T07:18:55.159Z,1.98
2016-12-29T07:19:55.233Z,1.92
2016-12-29T07:20:55.194Z,1.98
2016-12-29T07:21:55.059Z,1.92
2016-12-29T07:22:55.066Z,1.89
2016-12-29T07:23:55.118Z,1.87
2016-12-29T07:24:55.213Z,1.79
2016-12-29T07:25:55.189Z,1.66
2016-12-29T07:26:55.151Z,1.69
2016-12-29T07:27:55.123Z,1.71
2016-12-29T07:28:55.145Z,1.61
2016-12-29T07:29:55.179Z,1.65
2016-12-29T07:30:55.090Z,1.51
2016-12-29T07:31:55.126Z,1.51
2016-12-29T07:32:55.082Z,1.64
2016-12-29T07:33:55.154Z,1.71
2016-12-29T07:34:55.172Z,1.69
2016-12-29T07:35:55.174Z,1.72
2016-12-29T07:36:55.191Z,1.82
2016-12-29T07:37:55.172Z,1.72
2016-12-29T07:38:55.081Z,1.76
2016-12-29T07:39:55.158Z,1.69
2016-12-29T07:40:55.156Z,1.72
2016-12-29T07:41:55.224Z,1.68
2016-12-29T07:42:55.196Z,1.74
2016-12-29T07:43:55.223Z,1.69
2016-12-29T07:44:55.142Z,1.75
2016-12-29T07:45:55.199Z,1.74
2016-12-29T07:46:55.169Z,1.9
2016-12-29T07:47:55.076Z,1.89
2016-12-29T07:48:55.173Z,1.87
2016-12-29T07:49:55.187Z,1.92
2016-12-29T07:50:55.219Z,1.83
2016-12-29T07:51:55.144Z,1.76
2016-12-29T07:52:55.162Z,1.72
2016-12-29T07:53:55.184Z,1.78
2016-12-29T07:54:55.155Z,1.75
2016-12-29T07:55:55.247Z,1.79
2016-12-29T07:56:55.191Z,1.86
2016-12-29T07:57:55.159Z,1.76
2016-12-29T07:58:55.167Z,1.82
2016-12-29T07:59:55.165Z,1.83
2016-12-29T08:00:55.108Z,1.75
2016-12-29T08:01:55.178Z,1.89
2016-12-29T08:02:55.122Z,1.89
2016-12-29T08:03:55.150Z,1.94
2016-12-29T08:04:55.166Z,1.87
2016-12-29T08:05:55.165Z,1.9
2016-12-29T08:06:55.169Z,1.82
2016-12-29T08:07:55.542Z,1.89
2016-12-29T08:08:55.172Z,1.76
2016-12-29T08:09:55.171Z,1.72
2016-12-29T08:10:55.165Z,1.79
2016-12-29T08:11:55.190Z,1.78
2016-12-29T08:12:55.336Z,2.05
2016-12-29T08:13:55.231Z,1.82
2016-12-29T08:14:55.238Z,1.86
2016-12-29T08:15:55.241Z,1.82
2016-12-29T08:16:55.175Z,1.75
2016-12-29T08:17:55.232Z,1.87
2016-12-29T08:18:55.148Z,1.84
2016-12-29T08:19:55.134Z,1.72
2016-12-29T08:20:55.226Z,1.82
2016-12-29T08:21:55.242Z,1.78
2016-12-29T08:22:55.205Z,1.9
2016-12-29T08:23:55.403Z,1.79
2016-12-29T08:24:55.191Z,1.79
2016-12-29T08:25:55.249Z,1.86
2016-12-29T08:26:55.264Z,1.84
2016-12-29T08:27:55.137Z,1.84
2016-12-29T08:28:55.207Z,1.87
2016-12-29T08:29:55.252Z,1.84
2016-12-29T08:30:55.233Z,1.93
2016-12-29T08:31:55.285Z,1.94
2016-12-29T08:32:55.258Z,2.06
2016-12-29T08:33:55.147Z,1.92
2016-12-29T08:34:55.200Z,2.05
2016-12-29T08:35:55.139Z,2.06
2016-12-29T08:36:55.217Z,2.02
2016-12-29T08:37:55.212Z,2.08
2016-12-29T08:38:55.208Z,2.12
2016-12-29T08:39:55.330Z,2.13
2016-12-29T08:40:55.271Z,2.06
2016-12-29T08:41:55.226Z,2.08
2016-12-29T08:42:55.159Z,2.13
2016-12-29T08:43:55.342Z,2.16
2016-12-29T08:44:55.241Z,2.16
2016-12-29T08:45:55.221Z,2.16
2016-12-29T08:46:55.265Z,2.15
2016-12-29T08:47:55.166Z,2.13
2016-12-29T08:48:55.226Z,2.16
2016-12-29T08:49:55.283Z,2.26
2016-12-29T08:50:55.168Z,2.22
2016-12-29T08:51:55.174Z,2.26
2016-12-29T08:52:55.291Z,2.22
2016-12-29T08:53:55.281Z,2.16
2016-12-29T08:54:55.290Z,2.2
2016-12-29T08:55:55.240Z,2.27
2016-12-29T08:56:55.282Z,2.33
2016-12-29T08:57:55.241Z,2.2
2016-12-29T08:58:55.250Z,2.2
2016-12-29T08:59:55.241Z,2.38
2016-12-29T09:00:55.199Z,2.38
2016-12-29T09:01:55.288Z,2.24
2016-12-29T09:02:55.240Z,2.33
2016-12-29T09:03:55.240Z,2.29
2016-12-29T09:04:55.246Z,2.27
2016-12-29T09:05:55.337Z,2.36
2016-12-29T09:06:55.245Z,2.38
2016-12-29T09:07:55.214Z,2.42
2016-12-29T09:08:55.198Z,2.41
2016-12-29T09:09:55.184Z,2.42
2016-12-29T09:10:55.210Z,2.54
2016-12-29T09:11:55.315Z,2.63
2016-12-29T09:12:55.251Z,2.65
2016-12-29T09:13:55.290Z,2.66
2016-12-29T09:14:55.220Z,2.8
2016-12-29T09:15:55.206Z,2.81
2016-12-29T09:16:55.306Z,2.8
2016-12-29T09:17:55.286Z,2.87
2016-12-29T09:18:55.266Z,3.03
2016-12-29T09:19:55.212Z,3.19
2016-12-29T09:20:55.226Z,3.32
2016-12-29T09:21:55.261Z,3.53
2016-12-29T09:22:55.224Z,3.58
2016-12-29T09:23:55.258Z,3.74
2016-12-29T09:24:55.199Z,3.82
2016-12-29T09:25:55.281Z,3.94
2016-12-29T09:26:55.334Z,3.93
2016-12-29T09:27:55.222Z,4.15
2016-12-29T09:28:55.226Z,4.35
2016-12-29T09:29:55.209Z,4.28
2016-12-29T09:30:55.336Z,4.48
2016-12-29T09:31:55.234Z,4.32
2016-12-29T09:32:55.302Z,4.28
2016-12-29T09:33:55.294Z,4.33
2016-12-29T09:34:55.292Z,4.26
2016-12-29T09:35:55.285Z,4.36
2016-12-29T09:36:55.223Z,4.5
2016-12-29T09:37:55.392Z,4.44
2016-12-29T09:38:55.228Z,4.42
2016-12-29T09:39:55.276Z,4.46
2016-12-29T09:40:55.283Z,4.46
2016-12-29T09:41:55.230Z,4.46
2016-12-29T09:42:55.354Z,4.64
2016-12-29T09:43:55.275Z,4.69
2016-12-29T09:44:55.378Z,4.9
2016-12-29T09:45:55.287Z,4.92
2016-12-29T09:46:55.236Z,5.09
2016-12-29T09:47:55.308Z,5.23
2016-12-29T09:48:55.279Z,5.05
2016-12-29T09:49:55.292Z,5.05
2016-12-29T09:50:55.312Z,5.06
2016-12-29T09:51:55.238Z,5.23
2016-12-29T09:52:55.349Z,5.13
2016-12-29T09:53:55.392Z,4.98
2016-12-29T09:54:55.248Z,4.9
2016-12-29T09:55:55.322Z,4.95
2016-12-29T09:56:55.372Z,4.85
2016-12-29T09:57:55.268Z,4.91
2016-12-29T09:58:55.304Z,5.16
2016-12-29T09:59:55.271Z,5.12
2016-12-29T10:00:55.327Z,5.21
2016-12-29T10:01:55.377Z,5.2
2016-12-29T10:02:55.312Z,5.23
2016-12-29T10:03:55.304Z,5.33
2016-12-29T10:04:55.332Z,5.28
2016-12-29T10:05:55.255Z,5.09
2016-12-29T10:06:55.264Z,5.02
2016-12-29T10:07:55.264Z,5.05
2016-12-29T10:08:55.332Z,5.06
2016-12-29T10:09:55.409Z,5.02
2016-12-29T10:10:55.315Z,5.02
2016-12-29T10:11:55.317Z,4.87
2016-12-29T10:12:55.409Z,4.91
2016-12-29T10:13:55.334Z,4.87
2016-12-29T10:14:55.339Z,4.83
2016-12-29T10:15:55.335Z,5.27
2016-12-29T10:16:55.412Z,5.24
2016-12-29T10:17:55.380Z,5.3
2016-12-29T10:18:55.281Z,5.18
2016-12-29T10:19:55.406Z,5.21
2016-12-29T10:20:55.503Z,5.16
2016-12-29T10:21:55.337Z,5.3
2016-12-29T10:22:55.343Z,5.41
2016-12-29T10:23:55.329Z,5.48
2016-12-29T10:24:55.353Z,5.55
2016-12-29T10:25:55.418Z,5.52
2016-12-29T10:26:55.339Z,5.55
2016-12-29T10:27:55.343Z,5.6
2016-12-29T10:28:55.346Z,5.63
2016-12-29T10:29:55.351Z,5.87
2016-12-29T10:30:55.409Z,6.1
2016-12-29T10:31:55.301Z,6.31
2016-12-29T10:32:55.420Z,6.18
2016-12-29T10:33:55.305Z,5.98
2016-12-29T10:34:55.356Z,5.98
2016-12-29T10:35:55.362Z,5.85
2016-12-29T10:36:55.430Z,5.91
2016-12-29T10:37:55.358Z,5.91
2016-12-29T10:38:55.366Z,6.06
2016-12-29T10:39:55.307Z,6.4
2016-12-29T10:40:55.308Z,6.34
2016-12-29T10:41:55.342Z,6.6
2016-12-29T10:42:55.362Z,6.68
2016-12-29T10:43:55.309Z,6.49
2016-12-29T10:44:55.353Z,6.37
2016-12-29T10:45:55.371Z,6.34
2016-12-29T10:46:55.407Z,6.13
2016-12-29T10:47:55.383Z,6.09
2016-12-29T10:48:55.382Z,6.39
2016-12-29T10:49:55.311Z,6.31
2016-12-29T10:50:55.378Z,6.37
2016-12-29T10:51:55.429Z,6.33
2016-12-29T10:52:55.336Z,6.31
2016-12-29T10:53:55.330Z,6.36
2016-12-29T10:54:55.390Z,6.31
2016-12-29T10:55:55.381Z,6.31
2016-12-29T10:56:55.446Z,6.14
2016-12-29T10:57:55.408Z,6.1
2016-12-29T10:58:55.384Z,6.29
2016-12-29T10:59:55.452Z,6.68
2016-12-29T11:00:55.451Z,6.97
2016-12-29T11:01:55.385Z,7.05
2016-12-29T11:02:55.486Z,6.83
2016-12-29T11:03:55.406Z,6.68
2016-12-29T11:04:55.441Z,6.37
2016-12-29T11:05:55.410Z,6.39
2016-12-29T11:06:55.350Z,6.42
2016-12-29T11:07:55.462Z,6.4
2016-12-29T11:08:55.489Z,6.52
2016-12-29T11:09:55.353Z,6.75
2016-12-29T11:10:55.343Z,7.08
2016-12-29T11:11:55.353Z,7.12
2016-12-29T11:12:55.409Z,7.08
2016-12-29T11:13:55.413Z,6.8
2016-12-29T11:14:55.359Z,6.88
2016-12-29T11:15:55.422Z,6.88
2016-12-29T11:16:55.418Z,7.04
2016-12-29T11:17:55.436Z,7.34
2016-12-29T11:18:55.425Z,7.68
2016-12-29T11:19:55.346Z,7.75
2016-12-29T11:20:55.426Z,7.61
2016-12-29T11:21:55.470Z,7.26
2016-12-29T11:22:55.419Z,7.49
2016-12-29T11:23:55.411Z,7.4
2016-12-29T11:24:55.372Z,7.31
2016-12-29T11:25:55.394Z,7.37
2016-12-29T11:26:55.428Z,7.67
2016-12-29T11:27:55.488Z,7.59
2016-12-29T11:28:55.981Z,7.55
2016-12-29T11:29:55.385Z,7.51
2016-12-29T11:30:55.427Z,7.95
2016-12-29T11:31:55.373Z,8.31
2016-12-29T11:32:55.381Z,8.68
2016-12-29T11:33:55.389Z,8.39
2016-12-29T11:34:55.435Z,8.24
2016-12-29T11:35:55.446Z,8.13
2016-12-29T11:36:55.429Z,7.88
2016-12-29T11:37:55.516Z,7.82
2016-12-29T11:38:55.380Z,7.54
2016-12-29T11:39:55.440Z,7.68
2016-12-29T11:40:55.453Z,7.92
2016-12-29T11:41:55.447Z,7.67
2016-12-29T11:42:55.390Z,7.41
2016-12-29T11:43:55.440Z,7.41
2016-12-29T11:44:55.393Z,7.89
2016-12-29T11:45:55.520Z,8.1
2016-12-29T11:46:55.394Z,7.93
2016-12-29T11:47:55.451Z,7.86
2016-12-29T11:48:55.418Z,8.04
2016-12-29T11:49:55.518Z,7.95
2016-12-29T11:50:55.404Z,8.1
2016-12-29T11:51:55.463Z,8.31
2016-12-29T11:52:55.712Z,8.28
2016-12-29T11:53:55.498Z,7.99
2016-12-29T11:54:55.471Z,8.25
2016-12-29T11:55:55.401Z,8.1
2016-12-29T11:56:55.541Z,7.85
2016-12-29T11:57:55.534Z,7.8
2016-12-29T11:58:55.477Z,8.07
2016-12-29T11:59:55.527Z,8.24
2016-12-29T12:00:55.477Z,8.46
2016-12-29T12:01:55.480Z,8.36
2016-12-29T12:02:55.569Z,8.19
2016-12-29T12:03:55.547Z,8.43
2016-12-29T12:04:55.419Z,8.43
2016-12-29T12:05:55.491Z,8.34
2016-12-29T12:06:55.524Z,8.36
2016-12-29T12:07:55.551Z,8.43
2016-12-29T12:08:55.496Z,8.47
2016-12-29T12:09:55.561Z,8.43
2016-12-29T12:10:55.469Z,8.22
2016-12-29T12:11:55.508Z,8.25
2016-12-29T12:12:55.446Z,8.46
2016-12-29T12:13:55.461Z,8.65
2016-12-29T12:14:55.430Z,8.76
2016-12-29T12:15:55.490Z,8.69
2016-12-29T12:16:55.563Z,8.65
2016-12-29T12:17:55.456Z,8.17
2016-12-29T12:18:55.572Z,8.07
2016-12-29T12:19:55.491Z,8.03
2016-12-29T12:20:55.559Z,8.06
2016-12-29T12:21:55.563Z,7.92
2016-12-29T12:22:55.448Z,7.96
2016-12-29T12:23:55.568Z,7.82
2016-12-29T12:24:55.562Z,8.11
2016-12-29T12:25:55.567Z,7.93
2016-12-29T12:26:55.469Z,7.75
2016-12-29T12:27:55.502Z,7.75
2016-12-29T12:28:55.522Z,7.63
2016-12-29T12:29:55.553Z,7.82
2016-12-29T12:30:55.567Z,7.88
2016-12-29T12:31:55.445Z,7.99
2016-12-29T12:32:55.527Z,8.06
2016-12-29T12:33:55.531Z,7.99
2016-12-29T12:34:55.576Z,8.22
2016-12-29T12:35:55.450Z,8.07
2016-12-29T12:36:55.514Z,8.22
2016-12-29T12:37:55.452Z,8.13
2016-12-29T12:38:55.587Z,8.19
2016-12-29T12:39:55.462Z,8.11
2016-12-29T12:40:55.461Z,8.1
2016-12-29T12:41:55.511Z,8.21
2016-12-29T12:42:55.541Z,8.24
2016-12-29T12:43:55.469Z,8.42
2016-12-29T12:44:55.476Z,8.5
2016-12-29T12:45:55.523Z,8.42
2016-12-29T12:46:55.472Z,8.26
2016-12-29T12:47:55.536Z,8.34
2016-12-29T12:48:55.467Z,8.46
2016-12-29T12:49:55.623Z,8.4
2016-12-29T12:50:55.469Z,8.11
2016-12-29T12:51:55.478Z,8.09
2016-12-29T12:52:55.595Z,8.06
2016-12-29T12:53:55.536Z,7.93
2016-12-29T12:54:55.607Z,7.92
2016-12-29T12:55:55.545Z,7.7
2016-12-29T12:56:55.604Z,7.4
2016-12-29T12:57:55.535Z,7.03
2016-12-29T12:58:55.565Z,7.09
2016-12-29T12:59:55.551Z,6.97
2016-12-29T13:00:55.565Z,6.94
2016-12-29T13:01:55.485Z,6.85
2016-12-29T13:02:55.484Z,6.8
2016-12-29T13:03:55.486Z,6.86
2016-12-29T13:04:56.267Z,6.83
2016-12-29T13:05:55.510Z,6.72
2016-12-29T13:06:55.753Z,6.72
2016-12-29T13:07:55.545Z,6.75
2016-12-29T13:08:55.566Z,6.72
2016-12-29T13:09:55.546Z,6.62
2016-12-29T13:10:55.622Z,6.67
2016-12-29T13:11:55.547Z,6.58
2016-12-29T13:12:55.621Z,6.65
2016-12-29T13:13:55.675Z,6.54
2016-12-29T13:14:55.508Z,6.52
2016-12-29T13:15:55.508Z,6.49
2016-12-29T13:16:55.643Z,6.39
2016-12-29T13:17:55.567Z,6.47
2016-12-29T13:18:55.566Z,6.47
2016-12-29T13:19:55.520Z,6.46
2016-12-29T13:20:55.577Z,6.47